Time,TemperatureF,DewpointF,PressureIn,WindDirection,WindDirectionDegrees,WindSpeedMPH,WindSpeedGustMPH,Humidity,HourlyPrecipIn,Conditions,Clouds,dailyrainin,SolarRadiationWatts/m^2,SoftwareType,DateUTC
2017-05-23 00:00:00,70.4,51.9,29.87,North,355,0.0,0.0,52,0.00,,,0.00,0,Wunderground v.1.15,2017-05-23 07:00:00,
2017-05-23 00:10:00,70.5,52.0,29.87,North,360,3.0,4.0,52,0.00,,,0.00,0,Wunderground v.1.15,2017-05-23 07:10:00,
2017-05-23 00:15:00,70.6,52.1,29.87,NW,321,6.0,6.0,52,0.00,,,0.00,0,Wunderground v.1.15,2017-05-23 07:15:00,
2017-05-23 00:25:00,70.1,51.7,29.87,North,11,5.0,5.0,52,0.00,,,0.00,0,Wunderground v.1.15,2017-05-23 07:25:00,
2017-05-23 00:30:00,70.0,51.6,29.87,North,355,4.0,5.0,52,0.00,,,0.00,0,Wunderground v.1.15,2017-05-23 07:30:00,
2017-05-23 00:40:00,69.8,50.9,29.87,North,355,5.0,5.0,51,0.00,,,0.00,0,Wunderground v.1.15,2017-05-23 07:40:00,
2017-05-23 00:50:00,69.3,50.9,29.87,North,355,4.0,5.0,52,0.00,,,0.00,0,Wunderground v.1.15,2017-05-23 07:50:00,
2017-05-23 00:55:00,68.9,51.1,29.87,NNW,346,4.0,5.0,53,0.00,,,0.00,0,Wunderground v.1.15,2017-05-23 07:55:00,
2017-05-23 01:10:00,67.8,50.5,29.87,NNW,346,6.0,7.0,54,0.00,,,0.00,0,Wunderground v.1.15,2017-05-23 08:10:00,
2017-05-23 01:15:00,67.5,50.3,29.87,NNW,336,5.0,7.0,54,0.00,,,0.00,0,Wunderground v.1.15,2017-05-23 08:15:00,
2017-05-23 01:25:00,65.3,49.7,29.87,NNW,346,1.0,4.0,57,0.00,,,0.00,,Wunderground v.1.15,2017-05-23 08:25:00,
2017-05-23 01:30:00,65.3,50.1,29.87,NNW,346,0.0,0.0,58,0.00,,,0.00,,Wunderground v.1.15,2017-05-23 08:30:00,
2017-05-23 01:40:00,64.5,50.3,29.87,NNW,346,0.0,0.0,60,0.00,,,0.00,,Wunderground v.1.15,2017-05-23 08:40:00,
2017-05-23 01:50:00,63.7,49.5,29.87,NNW,346,0.0,0.0,60,0.00,,,0.00,,Wunderground v.1.15,2017-05-23 08:50:00,
2017-05-23 01:55:00,63.5,49.4,29.87,NNW,346,0.0,0.0,60,0.00,,,0.00,,Wunderground v.1.15,2017-05-23 08:55:00,
2017-05-23 02:00:00,63.3,49.2,29.87,NNW,346,0.0,0.0,60,0.00,,,0.00,,Wunderground v.1.15,2017-05-23 09:00:00,
2017-05-23 02:10:00,63.1,49.0,29.87,NNW,346,0.0,0.0,60,0.00,,,0.00,,Wunderground v.1.15,2017-05-23 09:10:00,
2017-05-23 02:20:00,62.2,49.4,29.87,NNW,346,0.0,0.0,63,0.00,,,0.00,,Wunderground v.1.15,2017-05-23 09:20:00,
2017-05-23 02:30:00,61.7,48.5,29.87,NNW,346,0.0,0.0,62,0.00,,,0.00,,Wunderground v.1.15,2017-05-23 09:30:00,
2017-05-23 02:35:00,61.6,49.3,29.87,NNW,346,0.0,0.0,64,0.00,,,0.00,,Wunderground v.1.15,2017-05-23 09:35:00,
2017-05-23 02:45:00,61.2,48.9,29.87,NNW,346,0.0,0.0,64,0.00,,,0.00,,Wunderground v.1.15,2017-05-23 09:45:00,
2017-05-23 02:50:00,61.2,48.9,29.87,NNW,346,0.0,0.0,64,0.00,,,0.00,,Wunderground v.1.15,2017-05-23 09:50:00,
2017-05-23 03:00:00,61.4,48.7,29.87,NNW,346,0.0,0.0,63,0.00,,,0.00,,Wunderground v.1.15,2017-05-23 10:00:00,
2017-05-23 03:10:00,61.3,48.2,29.87,NNW,346,0.0,0.0,62,0.00,,,0.00,,Wunderground v.1.15,2017-05-23 10:10:00,
2017-05-23 03:20:00,61.5,48.8,29.88,NNW,346,0.0,0.0,63,0.00,,,0.00,,Wunderground v.1.15,2017-05-23 10:20:00,
2017-05-23 03:30:00,61.8,47.8,29.87,NNW,346,0.0,0.0,60,0.00,,,0.00,,Wunderground v.1.15,2017-05-23 10:30:00,
2017-05-23 03:35:00,61.8,47.3,29.87,NNW,346,0.0,0.0,59,0.00,,,0.00,,Wunderground v.1.15,2017-05-23 10:35:00,
2017-05-23 03:45:00,61.9,47.4,29.87,NNW,346,0.0,0.0,59,0.00,,,0.00,,Wunderground v.1.15,2017-05-23 10:45:00,
2017-05-23 03:50:00,62.6,46.7,29.87,NNW,344,0.0,0.0,56,0.00,,,0.00,,Wunderground v.1.15,2017-05-23 10:50:00,
2017-05-23 04:00:00,64.7,48.2,29.87,NNW,347,1.0,1.0,55,0.00,,,0.00,,Wunderground v.1.15,2017-05-23 11:00:00,
2017-05-23 04:10:00,64.2,46.7,29.87,NW,310,0.0,1.0,53,0.00,,,0.00,,Wunderground v.1.15,2017-05-23 11:10:00,
2017-05-23 04:20:00,65.3,46.2,29.87,North,351,1.0,1.0,50,0.00,,,0.00,,Wunderground v.1.15,2017-05-23 11:20:00,
2017-05-23 04:30:00,65.0,47.4,29.87,North,351,0.0,0.0,53,0.00,,,0.00,,Wunderground v.1.15,2017-05-23 11:30:00,
2017-05-23 04:35:00,64.6,46.6,29.87,North,351,0.0,0.0,52,0.00,,,0.00,,Wunderground v.1.15,2017-05-23 11:35:00,
2017-05-23 04:40:00,64.7,46.1,29.87,North,355,0.0,0.0,51,0.00,,,0.00,,Wunderground v.1.15,2017-05-23 11:40:00,
2017-05-23 04:50:00,64.9,46.3,29.87,North,351,0.0,0.0,51,0.00,,,0.00,,Wunderground v.1.15,2017-05-23 11:50:00,
2017-05-23 04:55:00,65.3,46.7,29.87,North,351,0.0,0.0,51,0.00,,,0.00,,Wunderground v.1.15,2017-05-23 11:55:00,
2017-05-23 05:10:00,66.2,48.0,29.87,North,10,0.0,0.0,52,0.00,,,0.00,,Wunderground v.1.15,2017-05-23 12:10:00,
2017-05-23 05:15:00,66.1,46.4,29.87,NNW,342,0.0,0.0,49,0.00,,,0.00,,Wunderground v.1.15,2017-05-23 12:15:00,
2017-05-23 05:20:00,66.3,46.6,29.87,NNE,13,0.0,0.0,49,0.00,,,0.00,,Wunderground v.1.15,2017-05-23 12:20:00,
2017-05-23 05:25:00,66.5,47.3,29.87,North,350,0.0,0.0,50,0.00,,,0.00,,Wunderground v.1.15,2017-05-23 12:25:00,
2017-05-23 05:30:00,66.3,47.6,29.87,NE,52,0.0,0.0,51,0.00,,,0.00,,Wunderground v.1.15,2017-05-23 12:30:00,
2017-05-23 05:40:00,65.2,48.1,29.87,NE,52,0.0,0.0,54,0.00,,,0.00,,Wunderground v.1.15,2017-05-23 12:40:00,
2017-05-23 05:50:00,63.8,47.8,29.88,NE,52,0.0,0.0,56,0.00,,,0.00,,Wunderground v.1.15,2017-05-23 12:50:00,
2017-05-23 05:55:00,63.2,47.7,29.88,SSE,153,0.0,0.0,57,0.00,,,0.00,,Wunderground v.1.15,2017-05-23 12:55:00,
2017-05-23 06:00:00,62.9,47.0,29.88,East,94,0.0,0.0,56,0.00,,,0.00,,Wunderground v.1.15,2017-05-23 13:00:00,
2017-05-23 06:10:00,62.6,48.5,29.88,East,83,0.0,0.0,60,0.00,,,0.00,,Wunderground v.1.15,2017-05-23 13:10:00,
2017-05-23 06:15:00,62.2,49.0,29.88,East,83,0.0,0.0,62,0.00,,,0.00,,Wunderground v.1.15,2017-05-23 13:15:00,
2017-05-23 06:20:00,61.8,47.3,29.88,NNW,334,0.0,0.0,59,0.00,,,0.00,,Wunderground v.1.15,2017-05-23 13:20:00,
2017-05-23 06:30:00,63.2,49.5,29.88,SW,231,0.0,0.0,61,0.00,,,0.00,,Wunderground v.1.15,2017-05-23 13:30:00,
2017-05-23 06:35:00,63.0,48.4,29.88,NW,321,0.0,0.0,59,0.00,,,0.00,,Wunderground v.1.15,2017-05-23 13:35:00,
2017-05-23 06:40:00,63.2,48.2,29.88,NW,326,0.0,0.0,58,0.00,,,0.00,,Wunderground v.1.15,2017-05-23 13:40:00,
2017-05-23 06:45:00,65.6,48.5,29.88,NNW,340,2.0,2.0,54,0.00,,,0.00,105,Wunderground v.1.15,2017-05-23 13:45:00,
2017-05-23 06:55:00,66.4,48.7,29.88,NNE,14,3.0,6.0,53,0.00,,,0.00,142,Wunderground v.1.15,2017-05-23 13:55:00,
2017-05-23 07:00:00,66.6,49.4,29.88,North,355,4.0,4.0,54,0.00,,,0.00,162,Wunderground v.1.15,2017-05-23 14:00:00,
2017-05-23 07:10:00,67.4,49.7,29.88,North,350,2.0,2.0,53,0.00,,,0.00,200,Wunderground v.1.15,2017-05-23 14:10:00,
2017-05-23 07:15:00,67.8,50.0,29.88,North,355,3.0,6.0,53,0.00,,,0.00,216,Wunderground v.1.15,2017-05-23 14:15:00,
2017-05-23 07:20:00,68.5,50.2,29.89,NNW,347,3.0,3.0,52,0.00,,,0.00,236,Wunderground v.1.15,2017-05-23 14:20:00,
2017-05-23 07:25:00,69.1,50.7,29.89,NNW,346,2.0,3.0,52,0.00,,,0.00,255,Wunderground v.1.15,2017-05-23 14:25:00,
2017-05-23 07:35:00,70.4,51.4,29.89,North,360,2.0,5.0,51,0.00,,,0.00,292,Wunderground v.1.15,2017-05-23 14:35:00,
2017-05-23 07:45:00,71.4,51.8,29.89,NNE,23,4.0,5.0,50,0.00,,,0.00,327,Wunderground v.1.15,2017-05-23 14:45:00,
2017-05-23 07:50:00,72.1,52.4,29.89,North,355,3.0,3.0,50,0.00,,,0.00,341,Wunderground v.1.15,2017-05-23 14:50:00,
2017-05-23 08:00:00,73.4,53.6,29.89,North,355,1.0,1.0,50,0.00,,,0.00,373,Wunderground v.1.15,2017-05-23 15:00:00,
2017-05-23 08:10:00,74.9,53.3,29.89,North,355,0.0,0.0,47,0.00,,,0.00,410,Wunderground v.1.15,2017-05-23 15:10:00,
2017-05-23 08:20:00,76.2,54.5,29.89,North,355,1.0,1.0,47,0.00,,,0.00,445,Wunderground v.1.15,2017-05-23 15:20:00,
2017-05-23 08:30:00,77.5,56.3,29.89,North,355,0.0,0.0,48,0.00,,,0.00,473,Wunderground v.1.15,2017-05-23 15:30:00,
2017-05-23 08:40:00,80.0,56.7,29.89,North,355,0.0,0.0,45,0.00,,,0.00,508,Wunderground v.1.15,2017-05-23 15:40:00,
2017-05-23 08:50:00,81.8,57.8,29.90,North,355,0.0,0.0,44,0.00,,,0.00,545,Wunderground v.1.15,2017-05-23 15:50:00,
2017-05-23 08:55:00,82.6,56.5,29.90,North,360,0.0,0.0,41,0.00,,,0.00,561,Wunderground v.1.15,2017-05-23 15:55:00,
2017-05-23 09:00:00,83.2,51.1,29.90,North,360,0.0,0.0,33,0.00,,,0.00,575,Wunderground v.1.15,2017-05-23 16:00:00,
2017-05-23 09:10:00,84.1,51.9,29.90,SW,225,0.0,0.0,33,0.00,,,0.00,,Wunderground v.1.15,2017-05-23 16:10:00,
2017-05-23 09:15:00,84.4,47.7,29.90,SSW,196,0.0,0.0,28,0.00,,,0.00,,Wunderground v.1.15,2017-05-23 16:15:00,
2017-05-23 09:20:00,84.7,50.7,29.89,SSW,196,0.0,0.0,31,0.00,,,0.00,,Wunderground v.1.15,2017-05-23 16:20:00,
2017-05-23 09:30:00,85.8,48.0,29.89,South,183,0.0,0.0,27,0.00,,,0.00,,Wunderground v.1.15,2017-05-23 16:30:00,
2017-05-23 09:40:00,86.6,50.6,29.89,SW,221,0.0,0.0,29,0.00,,,0.00,,Wunderground v.1.15,2017-05-23 16:40:00,
2017-05-23 09:45:00,86.5,51.4,29.89,SSW,211,1.0,2.0,30,0.00,,,0.00,,Wunderground v.1.15,2017-05-23 16:45:00,
2017-05-23 09:55:00,86.8,50.7,29.89,SSW,210,1.0,4.0,29,0.00,,,0.00,,Wunderground v.1.15,2017-05-23 16:55:00,
2017-05-23 10:10:00,87.9,48.7,29.89,SE,126,0.0,0.0,26,0.00,,,0.00,,Wunderground v.1.15,2017-05-23 17:10:00,
2017-05-23 10:15:00,88.2,50.0,29.89,SW,215,0.0,3.0,27,0.00,,,0.00,,Wunderground v.1.15,2017-05-23 17:15:00,
2017-05-23 10:20:00,88.2,51.0,29.89,SW,221,1.0,1.0,28,0.00,,,0.00,,Wunderground v.1.15,2017-05-23 17:20:00,
2017-05-23 10:35:00,88.8,49.5,29.89,SSE,156,1.0,1.0,26,0.00,,,0.00,,Wunderground v.1.15,2017-05-23 17:35:00,
2017-05-23 10:40:00,88.9,50.6,29.89,West,270,1.0,1.0,27,0.00,,,0.00,,Wunderground v.1.15,2017-05-23 17:40:00,
2017-05-23 10:45:00,89.5,51.1,29.89,SE,128,1.0,1.0,27,0.00,,,0.00,,Wunderground v.1.15,2017-05-23 17:45:00,
2017-05-23 10:50:00,89.9,49.4,29.89,SE,136,1.0,1.0,25,0.00,,,0.00,,Wunderground v.1.15,2017-05-23 17:50:00,
2017-05-23 11:00:00,90.6,51.0,29.89,ENE,66,0.0,1.0,26,0.00,,,0.00,,Wunderground v.1.15,2017-05-23 18:00:00,
2017-05-23 11:10:00,90.4,49.8,29.88,South,181,2.0,2.0,25,0.00,,,0.00,,Wunderground v.1.15,2017-05-23 18:10:00,
2017-05-23 11:20:00,91.4,49.5,29.88,WSW,257,2.0,2.0,24,0.00,,,0.00,,Wunderground v.1.15,2017-05-23 18:20:00,
2017-05-23 11:25:00,91.0,49.2,29.88,SW,225,2.0,6.0,24,0.00,,,0.00,,Wunderground v.1.15,2017-05-23 18:25:00,
2017-05-23 11:30:00,90.7,47.8,29.88,SW,220,2.0,2.0,23,0.00,,,0.00,,Wunderground v.1.15,2017-05-23 18:30:00,
2017-05-23 11:35:00,90.9,48.0,29.88,WNW,292,2.0,4.0,23,0.00,,,0.00,,Wunderground v.1.15,2017-05-23 18:35:00,
2017-05-23 11:45:00,92.0,48.9,29.88,SSW,198,1.0,3.0,23,0.00,,,0.00,,Wunderground v.1.15,2017-05-23 18:45:00,
2017-05-23 11:55:00,92.5,49.3,29.88,SSW,202,2.0,2.0,23,0.00,,,0.00,,Wunderground v.1.15,2017-05-23 18:55:00,
2017-05-23 12:10:00,93.1,48.6,29.87,SE,136,1.0,1.0,22,0.00,,,0.00,,Wunderground v.1.15,2017-05-23 19:10:00,
2017-05-23 12:20:00,93.5,47.7,29.87,South,190,0.0,0.0,21,0.00,,,0.00,,Wunderground v.1.15,2017-05-23 19:20:00,
2017-05-23 12:30:00,94.6,47.3,29.87,SSW,192,0.0,1.0,20,0.00,,,0.00,,Wunderground v.1.15,2017-05-23 19:30:00,
2017-05-23 12:35:00,94.4,47.1,29.87,East,83,1.0,1.0,20,0.00,,,0.00,,Wunderground v.1.15,2017-05-23 19:35:00,
2017-05-23 12:45:00,94.5,47.2,29.86,SSW,202,1.0,5.0,20,0.00,,,0.00,,Wunderground v.1.15,2017-05-23 19:45:00,
2017-05-23 12:50:00,94.3,48.4,29.86,SSW,196,1.0,1.0,21,0.00,,,0.00,,Wunderground v.1.15,2017-05-23 19:50:00,
2017-05-23 12:55:00,94.4,48.4,29.86,West,270,2.0,5.0,21,0.00,,,0.00,,Wunderground v.1.15,2017-05-23 19:55:00,
2017-05-23 13:10:00,95.1,49.0,29.86,SW,229,2.0,3.0,21,0.00,,,0.00,,Wunderground v.1.15,2017-05-23 20:10:00,
2017-05-23 13:15:00,94.8,47.5,29.86,SW,226,2.0,3.0,20,0.00,,,0.00,,Wunderground v.1.15,2017-05-23 20:15:00,
2017-05-23 13:25:00,94.2,48.3,29.85,ESE,113,1.0,6.0,21,0.00,,,0.00,,Wunderground v.1.15,2017-05-23 20:25:00,
2017-05-23 13:35:00,94.7,48.7,29.85,SW,229,2.0,4.0,21,0.00,,,0.00,,Wunderground v.1.15,2017-05-23 20:35:00,
2017-05-23 13:45:00,95.4,49.3,29.85,SE,139,3.0,3.0,21,0.00,,,0.00,,Wunderground v.1.15,2017-05-23 20:45:00,
2017-05-23 13:55:00,96.1,49.9,29.85,West,273,1.0,2.0,21,0.00,,,0.00,,Wunderground v.1.15,2017-05-23 20:55:00,
2017-05-23 14:00:00,95.9,49.7,29.84,South,173,1.0,1.0,21,0.00,,,0.00,,Wunderground v.1.15,2017-05-23 21:00:00,
2017-05-23 14:10:00,96.4,50.1,29.84,West,259,3.0,3.0,21,0.00,,,0.00,,Wunderground v.1.15,2017-05-23 21:10:00,
2017-05-23 14:15:00,97.1,51.9,29.84,SW,233,2.0,3.0,22,0.00,,,0.00,,Wunderground v.1.15,2017-05-23 21:15:00,
2017-05-23 14:20:00,96.7,50.3,29.84,SSW,209,3.0,3.0,21,0.00,,,0.00,,Wunderground v.1.15,2017-05-23 21:20:00,
2017-05-23 14:25:00,96.6,50.3,29.84,NNW,333,4.0,5.0,21,0.00,,,0.00,,Wunderground v.1.15,2017-05-23 21:25:00,
2017-05-23 14:35:00,96.0,49.8,29.84,SSW,198,2.0,6.0,21,0.00,,,0.00,,Wunderground v.1.15,2017-05-23 21:35:00,
2017-05-23 14:45:00,97.1,49.4,29.84,South,179,3.0,4.0,20,0.00,,,0.00,,Wunderground v.1.15,2017-05-23 21:45:00,
2017-05-23 14:50:00,97.3,49.5,29.84,SSE,149,2.0,2.0,20,0.00,,,0.00,,Wunderground v.1.15,2017-05-23 21:50:00,
2017-05-23 15:00:00,96.7,49.0,29.83,WSW,254,3.0,5.0,20,0.00,,,0.00,,Wunderground v.1.15,2017-05-23 22:00:00,
2017-05-23 15:10:00,96.3,50.0,29.84,WSW,244,5.0,6.0,21,0.00,,,0.00,,Wunderground v.1.15,2017-05-23 22:10:00,
2017-05-23 15:15:00,96.2,49.9,29.83,West,266,3.0,6.0,21,0.00,,,0.00,,Wunderground v.1.15,2017-05-23 22:15:00,
2017-05-23 15:20:00,96.4,48.8,29.83,East,98,1.0,1.0,20,0.00,,,0.00,,Wunderground v.1.15,2017-05-23 22:20:00,
2017-05-23 15:25:00,96.9,47.8,29.83,SW,221,2.0,2.0,19,0.00,,,0.00,,Wunderground v.1.15,2017-05-23 22:25:00,
2017-05-23 15:30:00,97.1,49.4,29.82,SE,128,3.0,3.0,20,0.00,,,0.00,,Wunderground v.1.15,2017-05-23 22:30:00,